sensor_id;sensor_type;location;lat;lon;timestamp;temperature;humidity
49148;DHT22;41980;45.550;12.070;2023-04-01T00:01:24;10.40;79.30
49148;DHT22;41980;45.550;12.070;2023-04-01T00:07:26;10.30;79.40
49148;DHT22;41980;45.550;12.070;2023-04-01T00:13:28;10.30;79.20
49148;DHT22;41980;45.550;12.070;2023-04-01T00:19:30;10.40;79.00
49148;DHT22;41980;45.550;12.070;2023-04-01T00:25:33;10.40;79.00
49148;DHT22;41980;45.550;12.070;2023-04-01T00:31:35;10.30;79.40
49148;DHT22;41980;45.550;12.070;2023-04-01T00:37:37;10.40;79.50
49148;DHT22;41980;45.550;12.070;2023-04-01T00:43:43;10.50;79.30
49148;DHT22;41980;45.550;12.070;2023-04-01T00:49:50;10.60;79.20
49148;DHT22;41980;45.550;12.070;2023-04-01T00:55:59;10.70;79.20
49148;DHT22;41980;45.550;12.070;2023-04-01T01:02:04;10.80;79.30
49148;DHT22;41980;45.550;12.070;2023-04-01T01:08:17;10.80;79.20
49148;DHT22;41980;45.550;12.070;2023-04-01T01:38:51;11.20;78.60
49148;DHT22;41980;45.550;12.070;2023-04-01T01:44:54;11.20;78.20
49148;DHT22;41980;45.550;12.070;2023-04-01T01:50:57;11.00;79.20
49148;DHT22;41980;45.550;12.070;2023-04-01T01:57:07;10.70;79.20
49148;DHT22;41980;45.550;12.070;2023-04-01T02:03:13;10.60;78.70
49148;DHT22;41980;45.550;12.070;2023-04-01T02:09:16;10.50;79.40
49148;DHT22;41980;45.550;12.070;2023-04-01T02:15:19;10.30;79.60
49148;DHT22;41980;45.550;12.070;2023-04-01T02:21:24;10.10;79.40
49148;DHT22;41980;45.550;12.070;2023-04-01T02:27:28;10.00;79.30
49148;DHT22;41980;45.550;12.070;2023-04-01T02:33:31;10.00;80.50
49148;DHT22;41980;45.550;12.070;2023-04-01T02:39:35;9.90;79.50
49148;DHT22;41980;45.550;12.070;2023-04-01T02:45:36;9.90;80.00
49148;DHT22;41980;45.550;12.070;2023-04-01T02:51:38;9.80;79.40
49148;DHT22;41980;45.550;12.070;2023-04-01T02:57:40;9.70;79.80
49148;DHT22;41980;45.550;12.070;2023-04-01T03:03:42;9.70;79.30
49148;DHT22;41980;45.550;12.070;2023-04-01T03:09:44;9.60;79.10
49148;DHT22;41980;45.550;12.070;2023-04-01T03:15:45;9.50;79.30
49148;DHT22;41980;45.550;12.070;2023-04-01T03:21:47;9.40;79.80
49148;DHT22;41980;45.550;12.070;2023-04-01T03:27:49;9.20;80.40
49148;DHT22;41980;45.550;12.070;2023-04-01T03:33:51;9.00;80.60
49148;DHT22;41980;45.550;12.070;2023-04-01T03:39:52;9.00;80.80
49148;DHT22;41980;45.550;12.070;2023-04-01T03:45:54;9.00;80.40
49148;DHT22;41980;45.550;12.070;2023-04-01T03:51:58;9.00;80.60
49148;DHT22;41980;45.550;12.070;2023-04-01T03:58:00;8.90;80.40
49148;DHT22;41980;45.550;12.070;2023-04-01T04:04:04;8.90;80.20
49148;DHT22;41980;45.550;12.070;2023-04-01T04:10:07;9.00;80.20
49148;DHT22;41980;45.550;12.070;2023-04-01T04:16:09;9.00;80.00
49148;DHT22;41980;45.550;12.070;2023-04-01T04:22:14;8.90;80.00
49148;DHT22;41980;45.550;12.070;2023-04-01T04:28:16;8.80;80.30
49148;DHT22;41980;45.550;12.070;2023-04-01T04:34:20;8.70;80.30
49148;DHT22;41980;45.550;12.070;2023-04-01T04:40:24;8.60;80.30
49148;DHT22;41980;45.550;12.070;2023-04-01T04:46:26;8.70;80.30
49148;DHT22;41980;45.550;12.070;2023-04-01T04:52:35;8.60;80.20
49148;DHT22;41980;45.550;12.070;2023-04-01T04:58:38;8.70;80.10
49148;DHT22;41980;45.550;12.070;2023-04-01T05:04:42;8.60;80.10
49148;DHT22;41980;45.550;12.070;2023-04-01T05:10:46;8.60;80.60
49148;DHT22;41980;45.550;12.070;2023-04-01T05:16:47;8.50;80.80
49148;DHT22;41980;45.550;12.070;2023-04-01T05:22:56;8.60;80.90
49148;DHT22;41980;45.550;12.070;2023-04-01T05:28:58;8.70;80.70
49148;DHT22;41980;45.550;12.070;2023-04-01T05:35:00;9.30;80.10
49148;DHT22;41980;45.550;12.070;2023-04-01T05:41:03;10.50;80.00
49148;DHT22;41980;45.550;12.070;2023-04-01T05:47:07;11.80;77.20
49148;DHT22;41980;45.550;12.070;2023-04-01T05:53:08;12.10;75.60
49148;DHT22;41980;45.550;12.070;2023-04-01T05:59:13;11.90;76.00
49148;DHT22;41980;45.550;12.070;2023-04-01T06:05:20;11.90;76.40
49148;DHT22;41980;45.550;12.070;2023-04-01T06:11:32;11.90;77.30
49148;DHT22;41980;45.550;12.070;2023-04-01T06:23:55;16.90;73.20
49148;DHT22;41980;45.550;12.070;2023-04-01T06:54:44;22.10;66.00
49148;DHT22;41980;45.550;12.070;2023-04-01T07:00:54;22.60;65.10
49148;DHT22;41980;45.550;12.070;2023-04-01T07:07:04;23.40;63.80
49148;DHT22;41980;45.550;12.070;2023-04-01T07:13:18;24.00;63.90
49148;DHT22;41980;45.550;12.070;2023-04-01T07:25:44;25.50;62.60
49148;DHT22;41980;45.550;12.070;2023-04-01T07:38:26;26.10;62.10
49148;DHT22;41980;45.550;12.070;2023-04-01T07:57:00;21.60;63.90
49148;DHT22;41980;45.550;12.070;2023-04-01T08:15:52;24.90;61.30
49148;DHT22;41980;45.550;12.070;2023-04-01T08:22:15;26.50;58.90
49148;DHT22;41980;45.550;12.070;2023-04-01T08:34:26;26.80;56.30
49148;DHT22;41980;45.550;12.070;2023-04-01T08:40:40;27.00;57.10
49148;DHT22;41980;45.550;12.070;2023-04-01T09:17:39;26.60;53.70
49148;DHT22;41980;45.550;12.070;2023-04-01T09:23:53;26.10;54.00
49148;DHT22;41980;45.550;12.070;2023-04-01T09:36:17;26.60;49.00
49148;DHT22;41980;45.550;12.070;2023-04-01T11:33:19;20.00;49.50
49148;DHT22;41980;45.550;12.070;2023-04-01T11:51:59;19.40;50.10
49148;DHT22;41980;45.550;12.070;2023-04-01T12:22:37;19.40;50.50
49148;DHT22;41980;45.550;12.070;2023-04-01T14:12:50;18.80;54.90
49148;DHT22;41980;45.550;12.070;2023-04-01T14:31:20;18.90;54.90
49148;DHT22;41980;45.550;12.070;2023-04-01T14:49:48;18.80;55.10
49148;DHT22;41980;45.550;12.070;2023-04-01T14:55:52;18.80;55.30
49148;DHT22;41980;45.550;12.070;2023-04-01T15:02:01;18.80;55.80
49148;DHT22;41980;45.550;12.070;2023-04-01T15:08:10;18.80;56.20
49148;DHT22;41980;45.550;12.070;2023-04-01T15:14:24;18.60;56.60
49148;DHT22;41980;45.550;12.070;2023-04-01T15:45:09;18.20;57.80
49148;DHT22;41980;45.550;12.070;2023-04-01T16:03:39;18.00;58.10
49148;DHT22;41980;45.550;12.070;2023-04-01T16:22:16;17.70;58.80
49148;DHT22;41980;45.550;12.070;2023-04-01T16:28:32;17.70;59.30
49148;DHT22;41980;45.550;12.070;2023-04-01T16:34:43;17.50;59.40
49148;DHT22;41980;45.550;12.070;2023-04-01T16:40:57;17.50;60.10
49148;DHT22;41980;45.550;12.070;2023-04-01T16:47:07;17.30;60.10
49148;DHT22;41980;45.550;12.070;2023-04-01T17:24:03;16.20;61.30
49148;DHT22;41980;45.550;12.070;2023-04-01T17:54:50;15.10;62.80
49148;DHT22;41980;45.550;12.070;2023-04-01T18:25:41;14.40;66.80
49148;DHT22;41980;45.550;12.070;2023-04-01T18:31:54;14.20;66.60
49148;DHT22;41980;45.550;12.070;2023-04-01T19:08:40;13.50;67.80
49148;DHT22;41980;45.550;12.070;2023-04-01T19:20:57;13.40;68.10
49148;DHT22;41980;45.550;12.070;2023-04-01T19:27:06;13.30;68.10
49148;DHT22;41980;45.550;12.070;2023-04-01T21:24:30;12.80;75.70
49148;DHT22;41980;45.550;12.070;2023-04-01T22:07:22;12.50;74.60
49148;DHT22;41980;45.550;12.070;2023-04-01T22:13:30;12.50;74.80
49148;DHT22;41980;45.550;12.070;2023-04-01T22:31:55;12.50;74.80
49148;DHT22;41980;45.550;12.070;2023-04-01T22:44:19;12.40;75.60
49148;DHT22;41980;45.550;12.070;2023-04-01T22:56:37;12.30;77.00
49148;DHT22;41980;45.550;12.070;2023-04-01T23:02:47;12.30;77.70
49148;DHT22;41980;45.550;12.070;2023-04-01T23:08:55;12.30;77.80
49148;DHT22;41980;45.550;12.070;2023-04-01T23:15:02;12.20;77.70
49148;DHT22;41980;45.550;12.070;2023-04-01T23:45:29;11.80;80.40
49148;DHT22;41980;45.550;12.070;2023-04-01T23:51:39;11.70;80.50
